createdAt,value
2023-03-16T00:00:32.550Z,7.43
2023-03-16T00:03:04.124Z,6.97
2023-03-16T00:09:32.104Z,6.53
2023-03-16T00:12:03.236Z,6.90
2023-03-16T00:14:32.812Z,7.40
2023-03-16T00:17:06.659Z,7.13
2023-03-16T00:20:09.231Z,7.07
2023-03-16T00:22:39.036Z,8.23
2023-03-16T00:25:10.226Z,7.80
2023-03-16T00:27:38.704Z,7.67
2023-03-16T00:30:08.419Z,7.07
2023-03-16T00:32:38.793Z,7.93
2023-03-16T00:35:09.637Z,7.60
2023-03-16T00:37:39.816Z,6.53
2023-03-16T00:40:14.178Z,7.67
2023-03-16T00:42:42.678Z,6.17
2023-03-16T00:45:12.223Z,6.73
2023-03-16T00:47:42.318Z,6.17
2023-03-16T00:50:12.802Z,6.57
2023-03-16T00:52:42.464Z,6.30
2023-03-16T00:55:13.155Z,6.70
2023-03-16T00:57:42.897Z,6.77
2023-03-16T01:00:17.091Z,6.83
2023-03-16T01:02:46.690Z,6.17
2023-03-16T01:05:16.687Z,7.03
2023-03-16T01:07:46.587Z,6.73
2023-03-16T01:10:16.633Z,6.73
2023-03-16T01:12:46.446Z,7.47
2023-03-16T01:15:16.161Z,7.80
2023-03-16T01:17:44.326Z,7.37
2023-03-16T01:20:20.013Z,7.57
2023-03-16T01:22:49.320Z,7.27
2023-03-16T01:25:22.121Z,7.27
2023-03-16T01:27:50.471Z,7.23
2023-03-16T01:30:18.815Z,6.63
2023-03-16T01:32:47.139Z,7.57
2023-03-16T01:35:15.570Z,7.20
2023-03-16T01:37:43.884Z,7.40
2023-03-16T01:40:14.202Z,5.50
2023-03-16T01:42:48.910Z,5.20
2023-03-16T01:45:54.385Z,6.40
2023-03-16T01:48:25.482Z,7.37
2023-03-16T01:50:55.353Z,6.83
2023-03-16T01:53:26.916Z,7.23
2023-03-16T01:55:55.739Z,8.07
2023-03-16T01:58:25.740Z,8.57
2023-03-16T02:00:54.377Z,8.80
2023-03-16T02:03:23.781Z,8.10
2023-03-16T02:06:02.087Z,8.20
2023-03-16T02:08:32.563Z,7.10
2023-03-16T02:11:01.576Z,6.67
2023-03-16T02:13:36.819Z,6.40
2023-03-16T02:16:07.975Z,6.40
2023-03-16T02:18:37.432Z,6.77
2023-03-16T02:21:13.125Z,6.63
2023-03-16T02:23:43.731Z,7.00
2023-03-16T02:26:22.951Z,6.50
2023-03-16T02:29:11.639Z,6.77
2023-03-16T02:31:42.279Z,6.67
2023-03-16T02:34:13.537Z,6.37
2023-03-16T02:36:44.865Z,5.87
2023-03-16T02:39:13.162Z,6.57
2023-03-16T02:41:42.897Z,6.00
2023-03-16T02:44:16.236Z,6.17
2023-03-16T02:46:49.396Z,7.03
2023-03-16T02:49:22.821Z,5.07
2023-03-16T02:51:51.222Z,6.40
2023-03-16T02:54:19.509Z,6.47
2023-03-16T02:56:47.820Z,6.57
2023-03-16T02:59:16.149Z,6.20
2023-03-16T03:01:44.859Z,6.17
2023-03-16T03:04:14.835Z,7.10
2023-03-16T03:06:43.134Z,6.87
2023-03-16T03:09:12.711Z,6.33
2023-03-16T03:11:41.228Z,6.23
2023-03-16T03:14:10.884Z,6.90
2023-03-16T03:16:39.155Z,7.50
2023-03-16T03:19:07.429Z,8.30
2023-03-16T03:21:37.074Z,8.70
2023-03-16T03:24:05.780Z,7.70
2023-03-16T03:26:33.963Z,7.90
2023-03-16T03:29:02.553Z,7.50
2023-03-16T03:31:32.071Z,7.70
2023-03-16T03:34:06.771Z,7.20
2023-03-16T03:36:36.564Z,7.83
2023-03-16T03:39:07.595Z,7.17
2023-03-16T03:41:36.134Z,7.27
2023-03-16T03:44:06.213Z,7.43
2023-03-16T03:46:34.519Z,7.03
2023-03-16T03:49:05.242Z,7.50
2023-03-16T03:51:33.774Z,7.63
2023-03-16T03:54:06.128Z,7.83
2023-03-16T03:56:34.332Z,8.77
2023-03-16T03:59:02.507Z,7.07
2023-03-16T04:01:30.849Z,8.40
2023-03-16T04:03:59.100Z,6.63
2023-03-16T04:08:58.481Z,7.37
2023-03-16T04:13:57.720Z,6.57
2023-03-16T04:16:27.205Z,5.93
2023-03-16T04:18:55.711Z,6.40
2023-03-16T04:21:24.336Z,5.97
2023-03-16T04:23:54.556Z,5.13
2023-03-16T04:26:25.626Z,5.73
2023-03-16T04:28:53.938Z,5.77
2023-03-16T04:31:23.863Z,6.17
2023-03-16T04:33:56.504Z,5.70
2023-03-16T04:36:25.657Z,5.47
2023-03-16T04:38:56.872Z,5.60
2023-03-16T04:41:26.575Z,6.17
2023-03-16T04:43:54.828Z,5.60
2023-03-16T04:46:24.688Z,6.37
2023-03-16T04:48:53.281Z,5.93
2023-03-16T04:51:21.635Z,5.53
2023-03-16T04:53:50.922Z,6.73
2023-03-16T04:56:20.308Z,5.90
2023-03-16T04:58:51.089Z,6.80
2023-03-16T05:01:24.134Z,6.37
2023-03-16T05:03:53.961Z,6.23
2023-03-16T05:06:23.837Z,6.27
2023-03-16T05:08:52.055Z,7.13
2023-03-16T05:11:20.322Z,7.17
2023-03-16T05:13:58.153Z,7.37
2023-03-16T05:16:30.293Z,8.17
2023-03-16T05:18:59.635Z,7.20
2023-03-16T05:21:27.973Z,7.17
2023-03-16T05:23:56.432Z,7.47
2023-03-16T05:26:25.888Z,7.17
2023-03-16T05:28:54.141Z,7.53
2023-03-16T05:31:23.355Z,6.23
2023-03-16T05:33:53.729Z,6.53
2023-03-16T05:36:22.181Z,5.23
2023-03-16T05:38:50.738Z,5.73
2023-03-16T05:41:21.695Z,5.67
2023-03-16T05:43:51.936Z,5.77
2023-03-16T05:46:20.995Z,5.57
2023-03-16T05:48:50.572Z,5.50
2023-03-16T05:51:20.341Z,6.10
2023-03-16T05:53:52.515Z,5.57
2023-03-16T05:56:20.808Z,5.50
2023-03-16T05:58:49.051Z,7.10
2023-03-16T06:01:20.344Z,6.10
2023-03-16T06:03:48.997Z,6.30
2023-03-16T06:06:18.061Z,6.23
2023-03-16T06:08:47.822Z,5.83
2023-03-16T06:11:16.375Z,6.37
2023-03-16T06:13:44.762Z,6.07
2023-03-16T06:16:14.506Z,6.60
2023-03-16T06:19:03.963Z,6.77
2023-03-16T06:21:38.395Z,6.50
2023-03-16T06:24:23.805Z,6.10
2023-03-16T06:26:58.094Z,6.00
2023-03-16T06:29:26.587Z,5.83
2023-03-16T06:31:54.889Z,5.53
2023-03-16T06:34:23.708Z,5.73
2023-03-16T06:37:31.379Z,6.77
2023-03-16T06:41:20.104Z,5.97
2023-03-16T06:43:53.027Z,6.17
2023-03-16T06:46:21.415Z,7.17
2023-03-16T06:48:51.353Z,7.83
2023-03-16T06:51:23.171Z,6.23
2023-03-16T06:53:55.642Z,7.00
2023-03-16T06:57:06.322Z,6.37
2023-03-16T06:59:45.149Z,7.60
2023-03-16T07:02:15.667Z,7.50
2023-03-16T07:05:26.091Z,7.23
2023-03-16T07:08:00.144Z,9.80
2023-03-16T07:10:30.402Z,7.77
2023-03-16T07:13:09.088Z,7.83
2023-03-16T07:15:38.804Z,7.93
2023-03-16T07:18:18.971Z,7.33
2023-03-16T07:20:57.794Z,7.77
2023-03-16T07:23:27.400Z,7.17
2023-03-16T07:26:11.016Z,6.33
2023-03-16T07:28:42.208Z,6.50
2023-03-16T07:31:13.225Z,7.87
2023-03-16T07:33:48.675Z,7.50
2023-03-16T07:36:32.849Z,6.97
2023-03-16T07:39:47.622Z,6.23
2023-03-16T07:42:37.264Z,7.03
2023-03-16T07:45:07.991Z,13.60
2023-03-16T07:47:37.674Z,5.83
2023-03-16T07:50:09.879Z,6.03
2023-03-16T07:52:38.634Z,5.53
2023-03-16T07:55:07.527Z,5.20
2023-03-16T07:57:50.904Z,5.50
2023-03-16T08:03:10.639Z,5.20
2023-03-16T08:05:38.959Z,4.67
2023-03-16T08:08:16.104Z,4.40
2023-03-16T08:11:04.855Z,4.57
2023-03-16T08:13:35.392Z,4.03
2023-03-16T08:16:05.578Z,4.00
2023-03-16T08:18:35.469Z,4.20
2023-03-16T08:21:04.537Z,4.07
2023-03-16T08:23:50.458Z,5.00
2023-03-16T08:26:19.166Z,4.37
2023-03-16T08:28:48.545Z,4.30
2023-03-16T08:31:44.138Z,3.70
2023-03-16T08:34:13.927Z,4.20
2023-03-16T08:36:45.943Z,4.27
2023-03-16T08:39:16.916Z,4.87
2023-03-16T08:41:46.070Z,6.93
2023-03-16T08:44:14.542Z,3.93
2023-03-16T08:46:43.150Z,3.30
2023-03-16T08:49:14.539Z,2.83
2023-03-16T08:51:44.785Z,2.07
2023-03-16T08:54:13.412Z,2.07
2023-03-16T08:56:41.730Z,1.80
2023-03-16T08:59:19.963Z,1.93
2023-03-16T09:01:59.088Z,1.80
2023-03-16T09:04:30.117Z,1.87
2023-03-16T09:07:08.914Z,1.80
2023-03-16T09:09:40.425Z,1.80
2023-03-16T09:12:10.883Z,1.80
2023-03-16T09:14:43.635Z,1.50
2023-03-16T09:17:14.873Z,2.00
2023-03-16T09:19:55.722Z,2.70
2023-03-16T09:22:30.844Z,1.90
2023-03-16T09:25:00.790Z,2.03
2023-03-16T09:27:29.080Z,2.27
2023-03-16T09:29:59.587Z,1.60
2023-03-16T09:32:28.269Z,1.60
2023-03-16T09:34:58.080Z,1.77
2023-03-16T09:37:44.501Z,1.70
2023-03-16T09:40:32.417Z,1.93
2023-03-16T09:43:30.240Z,1.60
2023-03-16T09:46:11.164Z,1.70
2023-03-16T09:48:41.339Z,1.40
2023-03-16T09:51:21.166Z,1.50
2023-03-16T09:53:54.382Z,1.60
2023-03-16T09:56:31.270Z,1.47
2023-03-16T09:59:03.788Z,1.50
2023-03-16T10:01:41.670Z,1.40
2023-03-16T10:04:21.471Z,1.20
2023-03-16T10:07:11.577Z,1.33
2023-03-16T10:09:51.265Z,1.40
2023-03-16T10:12:20.869Z,1.57
2023-03-16T10:14:57.745Z,1.60
2023-03-16T10:17:32.215Z,1.33
2023-03-16T10:20:05.058Z,1.37
2023-03-16T10:22:39.890Z,1.40
2023-03-16T10:25:18.600Z,1.30
2023-03-16T10:27:52.637Z,1.60
2023-03-16T10:30:28.401Z,1.97
2023-03-16T10:32:58.575Z,1.50
2023-03-16T10:35:47.566Z,1.60
2023-03-16T10:38:40.055Z,1.60
2023-03-16T10:41:30.499Z,1.80
2023-03-16T10:44:09.249Z,1.70
2023-03-16T10:46:41.802Z,1.27
2023-03-16T10:49:29.083Z,1.33
2023-03-16T10:55:00.581Z,1.60
2023-03-16T10:57:49.912Z,1.50
2023-03-16T11:00:23.383Z,2.03
2023-03-16T11:02:55.416Z,1.70
2023-03-16T11:05:38.149Z,1.70
2023-03-16T11:08:22.139Z,2.03
2023-03-16T11:10:58.393Z,2.03
2023-03-16T11:13:33.952Z,1.50
2023-03-16T11:16:18.186Z,1.93
2023-03-16T11:18:50.128Z,2.20
2023-03-16T11:21:25.807Z,1.93
2023-03-16T11:23:58.405Z,2.03
2023-03-16T11:26:43.024Z,2.27
2023-03-16T11:29:20.885Z,1.60
2023-03-16T11:31:55.354Z,1.67
2023-03-16T11:34:29.381Z,1.60
2023-03-16T11:37:06.667Z,1.80
2023-03-16T11:39:42.816Z,1.77
2023-03-16T11:42:39.691Z,2.03
2023-03-16T11:45:23.480Z,1.53
2023-03-16T11:48:25.604Z,2.10
2023-03-16T11:51:03.899Z,1.73
2023-03-16T11:53:48.761Z,1.93
2023-03-16T11:56:36.303Z,2.30
2023-03-16T12:00:13.128Z,2.00
2023-03-16T12:03:06.984Z,1.90
2023-03-16T12:06:29.059Z,2.63
2023-03-16T12:13:28.431Z,1.93
2023-03-16T12:16:07.929Z,2.40
2023-03-16T12:18:49.684Z,2.40
2023-03-16T12:21:27.558Z,2.47
2023-03-16T12:24:00.833Z,1.93
2023-03-16T12:26:38.192Z,2.30
2023-03-16T12:29:15.364Z,2.20
2023-03-16T12:31:56.353Z,2.30
2023-03-16T12:34:31.105Z,12.83
2023-03-16T12:37:39.655Z,2.20
2023-03-16T12:40:45.828Z,2.40
2023-03-16T12:44:14.047Z,2.60
2023-03-16T12:47:00.620Z,2.50
2023-03-16T12:49:40.775Z,2.60
2023-03-16T12:52:28.510Z,3.53
2023-03-16T12:58:18.808Z,2.60
2023-03-16T13:00:58.970Z,2.37
2023-03-16T13:03:32.588Z,2.97
2023-03-16T13:06:03.644Z,2.60
2023-03-16T13:08:46.220Z,2.80
2023-03-16T13:11:16.505Z,2.50
2023-03-16T13:13:56.075Z,2.90
2023-03-16T13:16:31.094Z,2.83
2023-03-16T13:19:26.076Z,2.73
2023-03-16T13:22:21.030Z,2.93
2023-03-16T13:24:55.855Z,3.40
2023-03-16T13:27:29.571Z,2.90
2023-03-16T13:30:00.368Z,2.90
2023-03-16T13:32:42.877Z,2.90
2023-03-16T13:35:41.882Z,2.87
2023-03-16T13:38:18.375Z,2.77
2023-03-16T13:40:48.014Z,2.73
2023-03-16T13:43:28.835Z,2.87
2023-03-16T13:46:00.765Z,2.50
2023-03-16T13:48:30.249Z,2.80
2023-03-16T13:51:03.257Z,4.00
2023-03-16T13:56:24.298Z,3.10
2023-03-16T13:58:57.955Z,3.40
2023-03-16T14:01:33.522Z,2.87
2023-03-16T14:04:28.689Z,3.20
2023-03-16T14:07:04.876Z,2.73
2023-03-16T14:09:36.733Z,3.33
2023-03-16T14:12:05.635Z,2.70
2023-03-16T14:14:44.115Z,2.70
2023-03-16T14:17:15.504Z,2.57
2023-03-16T14:19:46.635Z,2.50
2023-03-16T14:22:19.506Z,2.80
2023-03-16T14:24:55.056Z,6.77
2023-03-16T14:27:46.760Z,2.70
2023-03-16T14:30:24.322Z,2.70
2023-03-16T14:32:57.768Z,3.80
2023-03-16T14:35:30.911Z,2.40
2023-03-16T14:38:31.164Z,2.80
2023-03-16T14:41:35.918Z,2.70
2023-03-16T14:44:06.881Z,3.10
2023-03-16T14:46:49.200Z,2.53
2023-03-16T14:49:23.667Z,2.60
2023-03-16T14:52:00.752Z,2.40
2023-03-16T14:54:37.465Z,2.60
2023-03-16T14:57:07.178Z,2.40
2023-03-16T14:59:39.947Z,2.77
2023-03-16T15:02:17.336Z,2.50
2023-03-16T15:05:18.607Z,2.30
2023-03-16T15:08:18.076Z,2.80
2023-03-16T15:11:25.715Z,3.10
2023-03-16T15:14:14.940Z,1.90
2023-03-16T15:16:49.268Z,2.60
2023-03-16T15:19:21.728Z,2.87
2023-03-16T15:21:50.825Z,2.57
2023-03-16T15:24:21.069Z,2.50
2023-03-16T15:27:04.493Z,2.80
2023-03-16T15:29:42.984Z,2.70
2023-03-16T15:32:19.176Z,2.60
2023-03-16T15:37:58.656Z,2.60
2023-03-16T15:40:31.730Z,4.40
2023-03-16T15:43:11.885Z,3.40
2023-03-16T15:45:43.729Z,3.27
2023-03-16T15:48:16.962Z,2.30
2023-03-16T15:50:55.810Z,2.37
2023-03-16T15:53:31.062Z,2.53
2023-03-16T15:56:05.601Z,2.60
2023-03-16T15:58:41.548Z,2.20
2023-03-16T16:01:20.548Z,2.60
2023-03-16T16:03:51.666Z,2.70
2023-03-16T16:06:31.644Z,2.53
2023-03-16T16:09:18.044Z,3.00
2023-03-16T16:11:53.786Z,2.77
2023-03-16T16:14:29.639Z,2.57
2023-03-16T16:17:02.258Z,2.70
2023-03-16T16:20:13.204Z,2.40
2023-03-16T16:22:46.213Z,2.53
2023-03-16T16:25:15.574Z,2.30
2023-03-16T16:34:11.180Z,2.53
2023-03-16T16:39:42.321Z,2.20
2023-03-16T16:42:17.906Z,2.43
2023-03-16T16:44:46.396Z,2.20
2023-03-16T16:47:24.869Z,2.40
2023-03-16T16:50:01.170Z,2.17
2023-03-16T16:52:29.602Z,2.17
2023-03-16T16:54:57.829Z,2.80
2023-03-16T16:57:27.344Z,2.80
2023-03-16T17:00:25.055Z,2.37
2023-03-16T17:03:00.082Z,2.37
2023-03-16T17:05:32.754Z,2.10
2023-03-16T17:08:04.394Z,2.30
2023-03-16T17:10:35.920Z,2.80
2023-03-16T17:13:11.756Z,2.27
2023-03-16T17:15:41.448Z,2.30
2023-03-16T17:18:31.082Z,2.47
2023-03-16T17:21:02.874Z,1.90
2023-03-16T17:23:53.397Z,2.60
2023-03-16T17:26:24.586Z,2.47
2023-03-16T17:29:01.684Z,2.20
2023-03-16T17:31:35.167Z,2.83
2023-03-16T17:34:18.217Z,2.40
2023-03-16T17:36:53.429Z,2.40
2023-03-16T17:39:58.865Z,1.97
2023-03-16T17:42:30.137Z,2.10
2023-03-16T17:45:06.322Z,1.70
2023-03-16T17:47:52.885Z,2.20
2023-03-16T17:50:36.176Z,2.03
2023-03-16T17:56:40.683Z,2.47
2023-03-16T17:59:16.625Z,2.43
2023-03-16T18:01:46.002Z,2.17
2023-03-16T18:04:17.931Z,3.33
2023-03-16T18:10:40.365Z,2.30
2023-03-16T18:13:18.532Z,2.77
2023-03-16T18:15:50.705Z,3.00
2023-03-16T18:18:23.429Z,2.33
2023-03-16T18:20:56.220Z,2.30
2023-03-16T18:23:46.531Z,2.47
2023-03-16T18:29:43.501Z,2.50
2023-03-16T18:32:25.353Z,3.10
2023-03-16T18:35:04.056Z,2.23
2023-03-16T18:40:53.845Z,2.20
2023-03-16T18:43:45.470Z,2.63
2023-03-16T18:49:36.376Z,3.00
2023-03-16T18:52:27.293Z,2.88
2023-03-16T18:55:01.049Z,2.60
2023-03-16T18:58:12.711Z,2.70
2023-03-16T19:01:07.440Z,2.40
2023-03-16T19:06:39.825Z,2.30
2023-03-16T19:12:32.571Z,2.80
2023-03-16T19:15:28.729Z,3.00
2023-03-16T19:18:30.659Z,3.50
2023-03-16T19:21:40.640Z,2.67
2023-03-16T19:25:01.219Z,2.80
2023-03-16T19:30:56.760Z,2.50
2023-03-16T19:33:38.304Z,2.53
2023-03-16T19:36:39.493Z,2.40
2023-03-16T19:39:39.272Z,2.33
2023-03-16T19:42:55.935Z,2.30
2023-03-16T19:49:32.034Z,2.87
2023-03-16T19:52:27.512Z,2.40
2023-03-16T19:55:31.436Z,2.47
2023-03-16T19:58:12.668Z,2.37
2023-03-16T20:00:50.185Z,2.30
2023-03-16T20:03:39.022Z,2.70
2023-03-16T20:10:34.837Z,2.70
2023-03-16T20:13:37.870Z,2.70
2023-03-16T20:16:46.250Z,2.70
2023-03-16T20:19:30.930Z,2.87
2023-03-16T20:22:03.125Z,3.30
2023-03-16T20:27:06.268Z,2.83
2023-03-16T20:29:36.607Z,3.23
2023-03-16T20:32:16.412Z,3.73
2023-03-16T20:34:46.836Z,4.23
2023-03-16T20:37:27.282Z,10.40
2023-03-16T20:39:59.146Z,5.67
2023-03-16T20:42:37.157Z,4.13
2023-03-16T20:45:17.814Z,3.43
2023-03-16T20:47:47.015Z,3.37
2023-03-16T20:50:26.230Z,3.20
2023-03-16T20:52:56.972Z,3.67
2023-03-16T20:55:29.445Z,3.80
2023-03-16T20:57:59.867Z,3.73
2023-03-16T21:00:34.800Z,5.50
2023-03-16T21:03:08.057Z,4.03
2023-03-16T21:05:39.032Z,4.00
2023-03-16T21:08:08.461Z,4.03
2023-03-16T21:10:39.049Z,4.43
2023-03-16T21:13:19.745Z,4.40
2023-03-16T21:15:51.386Z,4.93
2023-03-16T21:18:22.392Z,4.20
2023-03-16T21:20:53.066Z,4.03
2023-03-16T21:23:25.740Z,4.07
2023-03-16T21:25:59.069Z,4.43
2023-03-16T21:28:34.199Z,4.53
2023-03-16T21:31:03.076Z,4.00
2023-03-16T21:33:38.616Z,4.50
2023-03-16T21:36:29.388Z,4.47
2023-03-16T21:39:22.980Z,4.70
2023-03-16T21:41:51.780Z,4.73
2023-03-16T21:44:21.773Z,4.60
2023-03-16T21:46:51.069Z,4.90
2023-03-16T21:49:29.776Z,5.00
2023-03-16T21:52:27.162Z,5.10
2023-03-16T21:55:01.444Z,4.37
2023-03-16T21:57:56.484Z,4.67
2023-03-16T22:00:38.343Z,4.30
2023-03-16T22:03:50.038Z,4.47
2023-03-16T22:06:28.107Z,3.97
2023-03-16T22:08:57.550Z,4.30
2023-03-16T22:11:32.548Z,4.43
2023-03-16T22:14:04.221Z,4.37
2023-03-16T22:16:41.090Z,4.50
2023-03-16T22:19:13.484Z,4.03
2023-03-16T22:24:27.331Z,4.53
2023-03-16T22:26:58.505Z,4.23
2023-03-16T22:29:28.568Z,4.30
2023-03-16T22:32:03.125Z,3.93
2023-03-16T22:34:36.512Z,4.17
2023-03-16T22:37:06.744Z,4.20
2023-03-16T22:39:39.954Z,4.13
2023-03-16T22:42:29.266Z,3.83
2023-03-16T22:44:58.585Z,4.83
2023-03-16T22:47:32.683Z,4.30
2023-03-16T22:50:01.204Z,4.00
2023-03-16T22:52:33.598Z,4.93
2023-03-16T22:55:06.977Z,4.20
2023-03-16T22:57:35.557Z,4.07
2023-03-16T23:00:08.537Z,4.30
2023-03-16T23:02:39.273Z,4.07
2023-03-16T23:05:26.765Z,3.73
2023-03-16T23:07:56.186Z,4.50
2023-03-16T23:10:30.205Z,4.20
2023-03-16T23:13:02.303Z,4.07
2023-03-16T23:15:42.536Z,3.83
2023-03-16T23:18:24.508Z,3.50
2023-03-16T23:20:53.426Z,3.70
2023-03-16T23:23:22.043Z,3.80
2023-03-16T23:25:56.522Z,3.83
2023-03-16T23:28:26.982Z,3.73
2023-03-16T23:30:56.593Z,3.80
2023-03-16T23:33:27.115Z,3.93
2023-03-16T23:35:55.400Z,4.13
2023-03-16T23:38:24.794Z,4.07
2023-03-16T23:40:56.548Z,3.70
2023-03-16T23:43:36.769Z,4.17
2023-03-16T23:46:09.111Z,3.63
2023-03-16T23:48:45.993Z,3.90
2023-03-16T23:51:22.324Z,3.87
2023-03-16T23:53:51.129Z,3.60
2023-03-16T23:56:23.670Z,3.97
2023-03-16T23:58:53.735Z,3.80
